sensor_id;sensor_type;location;lat;lon;timestamp;P1;durP1;ratioP1;P2;durP2;ratioP2
2023;SDS011;1016;48.770;9.154;2023-02-02T00:00:03;19.47;;;2.13;;
2023;SDS011;1016;48.770;9.154;2023-02-02T00:02:30;21.40;;;2.50;;
2023;SDS011;1016;48.770;9.154;2023-02-02T00:04:56;20.70;;;2.40;;
2023;SDS011;1016;48.770;9.154;2023-02-02T00:07:22;23.00;;;2.50;;
2023;SDS011;1016;48.770;9.154;2023-02-02T00:09:48;20.90;;;1.80;;
2023;SDS011;1016;48.770;9.154;2023-02-02T00:12:13;21.40;;;2.10;;
2023;SDS011;1016;48.770;9.154;2023-02-02T00:14:39;20.23;;;1.83;;
2023;SDS011;1016;48.770;9.154;2023-02-02T00:17:07;19.77;;;2.17;;
2023;SDS011;1016;48.770;9.154;2023-02-02T00:19:34;21.00;;;2.30;;
2023;SDS011;1016;48.770;9.154;2023-02-02T00:22:00;21.87;;;2.57;;
2023;SDS011;1016;48.770;9.154;2023-02-02T00:24:26;20.07;;;2.30;;
2023;SDS011;1016;48.770;9.154;2023-02-02T00:26:52;24.50;;;3.10;;
2023;SDS011;1016;48.770;9.154;2023-02-02T00:29:20;21.43;;;2.50;;
2023;SDS011;1016;48.770;9.154;2023-02-02T00:31:48;23.93;;;2.70;;
2023;SDS011;1016;48.770;9.154;2023-02-02T00:34:14;22.40;;;2.60;;
2023;SDS011;1016;48.770;9.154;2023-02-02T00:36:40;23.13;;;2.60;;
2023;SDS011;1016;48.770;9.154;2023-02-02T00:39:06;22.43;;;2.40;;
2023;SDS011;1016;48.770;9.154;2023-02-02T00:41:33;22.67;;;2.30;;
2023;SDS011;1016;48.770;9.154;2023-02-02T00:43:58;22.10;;;2.13;;
2023;SDS011;1016;48.770;9.154;2023-02-02T00:46:42;20.20;;;2.10;;
2023;SDS011;1016;48.770;9.154;2023-02-02T00:49:08;21.97;;;2.23;;
2023;SDS011;1016;48.770;9.154;2023-02-02T00:51:34;21.13;;;2.20;;
2023;SDS011;1016;48.770;9.154;2023-02-02T00:54:00;22.33;;;2.30;;
2023;SDS011;1016;48.770;9.154;2023-02-02T00:56:27;21.17;;;2.27;;
2023;SDS011;1016;48.770;9.154;2023-02-02T00:58:52;22.10;;;2.90;;
2023;SDS011;1016;48.770;9.154;2023-02-02T01:01:18;25.47;;;2.73;;
2023;SDS011;1016;48.770;9.154;2023-02-02T01:03:45;22.17;;;2.97;;
2023;SDS011;1016;48.770;9.154;2023-02-02T01:06:11;20.73;;;2.63;;
2023;SDS011;1016;48.770;9.154;2023-02-02T01:08:37;23.00;;;2.40;;
2023;SDS011;1016;48.770;9.154;2023-02-02T01:11:03;21.37;;;3.33;;
2023;SDS011;1016;48.770;9.154;2023-02-02T01:13:29;22.97;;;2.57;;
2023;SDS011;1016;48.770;9.154;2023-02-02T01:15:56;21.43;;;2.23;;
2023;SDS011;1016;48.770;9.154;2023-02-02T01:18:22;21.17;;;2.30;;
2023;SDS011;1016;48.770;9.154;2023-02-02T01:20:58;23.77;;;2.60;;
2023;SDS011;1016;48.770;9.154;2023-02-02T01:23:25;21.87;;;1.97;;
2023;SDS011;1016;48.770;9.154;2023-02-02T01:25:54;19.67;;;2.00;;
2023;SDS011;1016;48.770;9.154;2023-02-02T01:28:21;20.93;;;2.00;;
2023;SDS011;1016;48.770;9.154;2023-02-02T01:30:47;21.13;;;2.00;;
2023;SDS011;1016;48.770;9.154;2023-02-02T01:33:13;21.87;;;2.10;;
2023;SDS011;1016;48.770;9.154;2023-02-02T01:35:54;20.70;;;2.07;;
2023;SDS011;1016;48.770;9.154;2023-02-02T01:38:21;21.27;;;2.10;;
2023;SDS011;1016;48.770;9.154;2023-02-02T01:40:48;20.30;;;2.30;;
2023;SDS011;1016;48.770;9.154;2023-02-02T01:45:55;19.03;;;1.90;;
2023;SDS011;1016;48.770;9.154;2023-02-02T01:48:29;19.80;;;2.13;;
2023;SDS011;1016;48.770;9.154;2023-02-02T01:50:58;19.27;;;2.00;;
2023;SDS011;1016;48.770;9.154;2023-02-02T01:53:27;20.77;;;1.80;;
2023;SDS011;1016;48.770;9.154;2023-02-02T01:55:53;21.77;;;2.50;;
2023;SDS011;1016;48.770;9.154;2023-02-02T01:58:27;21.23;;;2.23;;
2023;SDS011;1016;48.770;9.154;2023-02-02T02:00:55;19.17;;;2.20;;
2023;SDS011;1016;48.770;9.154;2023-02-02T02:03:21;20.33;;;2.13;;
2023;SDS011;1016;48.770;9.154;2023-02-02T02:06:06;20.60;;;2.20;;
2023;SDS011;1016;48.770;9.154;2023-02-02T02:08:36;19.77;;;1.93;;
2023;SDS011;1016;48.770;9.154;2023-02-02T02:11:04;19.70;;;1.97;;
2023;SDS011;1016;48.770;9.154;2023-02-02T02:13:31;19.00;;;2.13;;
2023;SDS011;1016;48.770;9.154;2023-02-02T02:16:21;21.03;;;2.37;;
2023;SDS011;1016;48.770;9.154;2023-02-02T02:19:19;20.80;;;1.53;;
2023;SDS011;1016;48.770;9.154;2023-02-02T02:28:43;18.27;;;1.87;;
2023;SDS011;1016;48.770;9.154;2023-02-02T02:36:50;20.50;;;1.60;;
2023;SDS011;1016;48.770;9.154;2023-02-02T02:39:33;17.57;;;1.53;;
2023;SDS011;1016;48.770;9.154;2023-02-02T02:42:13;19.00;;;1.70;;
2023;SDS011;1016;48.770;9.154;2023-02-02T02:44:42;19.23;;;1.60;;
2023;SDS011;1016;48.770;9.154;2023-02-02T02:47:08;19.50;;;1.73;;
2023;SDS011;1016;48.770;9.154;2023-02-02T02:49:44;18.50;;;1.70;;
2023;SDS011;1016;48.770;9.154;2023-02-02T02:52:11;18.37;;;1.70;;
2023;SDS011;1016;48.770;9.154;2023-02-02T02:54:39;18.40;;;1.63;;
2023;SDS011;1016;48.770;9.154;2023-02-02T02:59:51;19.17;;;1.87;;
2023;SDS011;1016;48.770;9.154;2023-02-02T03:02:35;18.13;;;1.70;;
2023;SDS011;1016;48.770;9.154;2023-02-02T03:08:19;18.60;;;1.73;;
2023;SDS011;1016;48.770;9.154;2023-02-02T03:10:50;21.03;;;2.10;;
2023;SDS011;1016;48.770;9.154;2023-02-02T03:13:17;18.07;;;1.50;;
2023;SDS011;1016;48.770;9.154;2023-02-02T03:15:44;21.77;;;1.60;;
2023;SDS011;1016;48.770;9.154;2023-02-02T03:18:13;19.90;;;1.70;;
2023;SDS011;1016;48.770;9.154;2023-02-02T03:20:41;19.30;;;1.60;;
2023;SDS011;1016;48.770;9.154;2023-02-02T03:23:08;19.17;;;1.87;;
2023;SDS011;1016;48.770;9.154;2023-02-02T03:25:34;17.73;;;1.40;;
2023;SDS011;1016;48.770;9.154;2023-02-02T03:28:00;18.23;;;1.70;;
2023;SDS011;1016;48.770;9.154;2023-02-02T03:30:25;17.17;;;1.33;;
2023;SDS011;1016;48.770;9.154;2023-02-02T03:32:51;18.30;;;1.60;;
2023;SDS011;1016;48.770;9.154;2023-02-02T03:35:17;18.67;;;1.70;;
2023;SDS011;1016;48.770;9.154;2023-02-02T03:37:44;18.63;;;1.70;;
2023;SDS011;1016;48.770;9.154;2023-02-02T03:40:11;17.73;;;1.40;;
2023;SDS011;1016;48.770;9.154;2023-02-02T03:42:36;19.10;;;1.60;;
2023;SDS011;1016;48.770;9.154;2023-02-02T03:45:02;19.97;;;1.47;;
2023;SDS011;1016;48.770;9.154;2023-02-02T03:47:28;17.37;;;1.17;;
2023;SDS011;1016;48.770;9.154;2023-02-02T03:49:54;17.50;;;1.30;;
2023;SDS011;1016;48.770;9.154;2023-02-02T03:52:19;16.70;;;1.10;;
2023;SDS011;1016;48.770;9.154;2023-02-02T03:54:45;17.80;;;1.40;;
2023;SDS011;1016;48.770;9.154;2023-02-02T03:57:10;17.33;;;1.30;;
2023;SDS011;1016;48.770;9.154;2023-02-02T03:59:36;17.07;;;1.20;;
2023;SDS011;1016;48.770;9.154;2023-02-02T04:02:02;17.67;;;1.30;;
2023;SDS011;1016;48.770;9.154;2023-02-02T04:04:27;18.67;;;1.33;;
2023;SDS011;1016;48.770;9.154;2023-02-02T04:06:53;17.50;;;1.60;;
2023;SDS011;1016;48.770;9.154;2023-02-02T04:09:18;17.20;;;1.20;;
2023;SDS011;1016;48.770;9.154;2023-02-02T04:11:44;18.17;;;1.50;;
2023;SDS011;1016;48.770;9.154;2023-02-02T04:14:09;17.53;;;1.23;;
2023;SDS011;1016;48.770;9.154;2023-02-02T04:16:35;17.43;;;1.20;;
2023;SDS011;1016;48.770;9.154;2023-02-02T04:19:02;17.83;;;1.40;;
2023;SDS011;1016;48.770;9.154;2023-02-02T04:21:28;17.27;;;1.10;;
2023;SDS011;1016;48.770;9.154;2023-02-02T04:23:54;17.57;;;1.40;;
2023;SDS011;1016;48.770;9.154;2023-02-02T04:26:20;16.67;;;1.20;;
2023;SDS011;1016;48.770;9.154;2023-02-02T04:28:49;17.00;;;1.20;;
2023;SDS011;1016;48.770;9.154;2023-02-02T04:31:15;17.47;;;1.20;;
2023;SDS011;1016;48.770;9.154;2023-02-02T04:33:40;17.90;;;1.30;;
2023;SDS011;1016;48.770;9.154;2023-02-02T04:36:06;17.60;;;1.60;;
2023;SDS011;1016;48.770;9.154;2023-02-02T04:38:31;17.70;;;1.43;;
2023;SDS011;1016;48.770;9.154;2023-02-02T04:40:57;18.80;;;1.60;;
2023;SDS011;1016;48.770;9.154;2023-02-02T04:43:22;18.33;;;1.40;;
2023;SDS011;1016;48.770;9.154;2023-02-02T04:45:53;18.93;;;1.57;;
2023;SDS011;1016;48.770;9.154;2023-02-02T04:48:19;17.53;;;1.30;;
2023;SDS011;1016;48.770;9.154;2023-02-02T04:50:45;18.23;;;1.60;;
2023;SDS011;1016;48.770;9.154;2023-02-02T04:53:10;19.53;;;2.10;;
2023;SDS011;1016;48.770;9.154;2023-02-02T04:55:36;17.70;;;1.70;;
2023;SDS011;1016;48.770;9.154;2023-02-02T04:58:02;18.90;;;1.80;;
2023;SDS011;1016;48.770;9.154;2023-02-02T05:00:29;18.20;;;1.50;;
2023;SDS011;1016;48.770;9.154;2023-02-02T05:02:54;17.77;;;1.50;;
2023;SDS011;1016;48.770;9.154;2023-02-02T05:05:20;18.20;;;1.40;;
2023;SDS011;1016;48.770;9.154;2023-02-02T05:07:45;18.33;;;1.53;;
2023;SDS011;1016;48.770;9.154;2023-02-02T05:10:11;18.30;;;1.40;;
2023;SDS011;1016;48.770;9.154;2023-02-02T05:12:36;19.43;;;1.67;;
2023;SDS011;1016;48.770;9.154;2023-02-02T05:15:02;18.70;;;2.03;;
2023;SDS011;1016;48.770;9.154;2023-02-02T05:17:29;18.23;;;1.73;;
2023;SDS011;1016;48.770;9.154;2023-02-02T05:19:55;19.03;;;1.90;;
2023;SDS011;1016;48.770;9.154;2023-02-02T05:22:21;17.60;;;1.40;;
2023;SDS011;1016;48.770;9.154;2023-02-02T05:24:46;20.00;;;2.00;;
2023;SDS011;1016;48.770;9.154;2023-02-02T05:27:12;18.50;;;1.80;;
2023;SDS011;1016;48.770;9.154;2023-02-02T05:29:37;19.40;;;1.87;;
2023;SDS011;1016;48.770;9.154;2023-02-02T05:32:03;18.70;;;2.10;;
2023;SDS011;1016;48.770;9.154;2023-02-02T05:34:28;18.30;;;1.90;;
2023;SDS011;1016;48.770;9.154;2023-02-02T05:36:54;18.53;;;1.70;;
2023;SDS011;1016;48.770;9.154;2023-02-02T05:39:19;19.47;;;1.97;;
2023;SDS011;1016;48.770;9.154;2023-02-02T05:41:45;19.10;;;2.10;;
2023;SDS011;1016;48.770;9.154;2023-02-02T05:44:11;18.70;;;1.90;;
2023;SDS011;1016;48.770;9.154;2023-02-02T05:46:37;19.43;;;2.00;;
2023;SDS011;1016;48.770;9.154;2023-02-02T05:49:03;19.37;;;1.50;;
2023;SDS011;1016;48.770;9.154;2023-02-02T05:51:39;19.17;;;1.83;;
2023;SDS011;1016;48.770;9.154;2023-02-02T05:54:11;21.50;;;2.20;;
2023;SDS011;1016;48.770;9.154;2023-02-02T05:56:37;17.83;;;1.97;;
2023;SDS011;1016;48.770;9.154;2023-02-02T05:59:03;18.80;;;2.17;;
2023;SDS011;1016;48.770;9.154;2023-02-02T06:01:31;20.27;;;2.10;;
2023;SDS011;1016;48.770;9.154;2023-02-02T06:03:57;18.90;;;1.80;;
2023;SDS011;1016;48.770;9.154;2023-02-02T06:06:23;18.00;;;1.60;;
2023;SDS011;1016;48.770;9.154;2023-02-02T06:08:48;20.57;;;2.40;;
2023;SDS011;1016;48.770;9.154;2023-02-02T06:11:14;21.20;;;2.30;;
2023;SDS011;1016;48.770;9.154;2023-02-02T06:13:41;19.97;;;2.03;;
2023;SDS011;1016;48.770;9.154;2023-02-02T06:16:07;22.77;;;2.60;;
2023;SDS011;1016;48.770;9.154;2023-02-02T06:18:34;21.50;;;2.20;;
2023;SDS011;1016;48.770;9.154;2023-02-02T06:21:01;20.97;;;2.27;;
2023;SDS011;1016;48.770;9.154;2023-02-02T06:23:28;18.83;;;2.33;;
2023;SDS011;1016;48.770;9.154;2023-02-02T06:25:54;20.13;;;2.20;;
2023;SDS011;1016;48.770;9.154;2023-02-02T06:28:19;21.87;;;2.37;;
2023;SDS011;1016;48.770;9.154;2023-02-02T06:30:46;20.27;;;2.70;;
2023;SDS011;1016;48.770;9.154;2023-02-02T06:33:11;24.10;;;2.30;;
2023;SDS011;1016;48.770;9.154;2023-02-02T06:35:37;20.20;;;2.53;;
2023;SDS011;1016;48.770;9.154;2023-02-02T06:38:02;20.17;;;2.50;;
2023;SDS011;1016;48.770;9.154;2023-02-02T06:40:28;19.47;;;2.10;;
2023;SDS011;1016;48.770;9.154;2023-02-02T06:42:54;26.07;;;2.73;;
2023;SDS011;1016;48.770;9.154;2023-02-02T06:45:24;22.00;;;2.23;;
2023;SDS011;1016;48.770;9.154;2023-02-02T06:47:50;23.10;;;2.60;;
2023;SDS011;1016;48.770;9.154;2023-02-02T06:50:16;20.73;;;2.57;;
2023;SDS011;1016;48.770;9.154;2023-02-02T06:52:48;18.50;;;2.47;;
2023;SDS011;1016;48.770;9.154;2023-02-02T06:55:15;21.90;;;2.50;;
2023;SDS011;1016;48.770;9.154;2023-02-02T06:57:41;21.10;;;2.23;;
2023;SDS011;1016;48.770;9.154;2023-02-02T07:00:07;19.90;;;2.30;;
2023;SDS011;1016;48.770;9.154;2023-02-02T07:02:33;22.03;;;2.27;;
2023;SDS011;1016;48.770;9.154;2023-02-02T07:04:59;19.83;;;1.83;;
2023;SDS011;1016;48.770;9.154;2023-02-02T07:07:25;20.80;;;2.20;;
2023;SDS011;1016;48.770;9.154;2023-02-02T07:09:51;17.63;;;1.80;;
2023;SDS011;1016;48.770;9.154;2023-02-02T07:12:16;18.50;;;1.93;;
2023;SDS011;1016;48.770;9.154;2023-02-02T07:14:43;17.73;;;1.63;;
2023;SDS011;1016;48.770;9.154;2023-02-02T07:17:09;18.87;;;2.03;;
2023;SDS011;1016;48.770;9.154;2023-02-02T07:19:35;19.50;;;1.83;;
2023;SDS011;1016;48.770;9.154;2023-02-02T07:22:00;19.90;;;2.03;;
2023;SDS011;1016;48.770;9.154;2023-02-02T07:24:26;19.07;;;1.70;;
2023;SDS011;1016;48.770;9.154;2023-02-02T07:26:51;17.87;;;1.40;;
2023;SDS011;1016;48.770;9.154;2023-02-02T07:29:17;17.70;;;1.60;;
2023;SDS011;1016;48.770;9.154;2023-02-02T07:31:42;17.60;;;1.63;;
2023;SDS011;1016;48.770;9.154;2023-02-02T07:34:08;16.80;;;1.60;;
2023;SDS011;1016;48.770;9.154;2023-02-02T07:36:34;17.80;;;1.60;;
2023;SDS011;1016;48.770;9.154;2023-02-02T07:38:59;18.67;;;1.67;;
2023;SDS011;1016;48.770;9.154;2023-02-02T07:41:28;17.90;;;1.80;;
2023;SDS011;1016;48.770;9.154;2023-02-02T07:43:54;18.20;;;1.83;;
2023;SDS011;1016;48.770;9.154;2023-02-02T07:46:19;19.47;;;2.00;;
2023;SDS011;1016;48.770;9.154;2023-02-02T07:48:45;18.40;;;1.43;;
2023;SDS011;1016;48.770;9.154;2023-02-02T07:51:11;17.53;;;1.63;;
2023;SDS011;1016;48.770;9.154;2023-02-02T07:53:41;18.73;;;1.80;;
2023;SDS011;1016;48.770;9.154;2023-02-02T07:56:18;18.70;;;1.70;;
2023;SDS011;1016;48.770;9.154;2023-02-02T07:58:49;19.00;;;2.00;;
2023;SDS011;1016;48.770;9.154;2023-02-02T08:01:16;19.90;;;2.10;;
2023;SDS011;1016;48.770;9.154;2023-02-02T08:03:43;19.70;;;2.20;;
2023;SDS011;1016;48.770;9.154;2023-02-02T08:08:40;20.87;;;2.27;;
2023;SDS011;1016;48.770;9.154;2023-02-02T08:11:06;19.00;;;1.80;;
2023;SDS011;1016;48.770;9.154;2023-02-02T08:13:34;19.40;;;2.27;;
2023;SDS011;1016;48.770;9.154;2023-02-02T08:15:59;19.93;;;2.37;;
2023;SDS011;1016;48.770;9.154;2023-02-02T08:18:25;18.33;;;1.93;;
2023;SDS011;1016;48.770;9.154;2023-02-02T08:20:50;18.37;;;2.20;;
2023;SDS011;1016;48.770;9.154;2023-02-02T08:23:16;21.23;;;2.07;;
2023;SDS011;1016;48.770;9.154;2023-02-02T08:25:47;18.43;;;2.07;;
2023;SDS011;1016;48.770;9.154;2023-02-02T08:28:16;20.43;;;2.40;;
2023;SDS011;1016;48.770;9.154;2023-02-02T08:30:42;19.60;;;2.20;;
2023;SDS011;1016;48.770;9.154;2023-02-02T08:33:08;18.53;;;1.93;;
2023;SDS011;1016;48.770;9.154;2023-02-02T08:35:33;17.47;;;1.87;;
2023;SDS011;1016;48.770;9.154;2023-02-02T08:38:03;18.97;;;2.63;;
2023;SDS011;1016;48.770;9.154;2023-02-02T08:40:31;19.00;;;2.30;;
2023;SDS011;1016;48.770;9.154;2023-02-02T08:42:56;21.33;;;1.77;;
2023;SDS011;1016;48.770;9.154;2023-02-02T08:45:23;20.40;;;2.30;;
2023;SDS011;1016;48.770;9.154;2023-02-02T08:47:49;20.33;;;2.53;;
2023;SDS011;1016;48.770;9.154;2023-02-02T08:50:15;19.10;;;2.30;;
2023;SDS011;1016;48.770;9.154;2023-02-02T08:52:41;20.27;;;2.50;;
2023;SDS011;1016;48.770;9.154;2023-02-02T08:55:07;19.40;;;2.43;;
2023;SDS011;1016;48.770;9.154;2023-02-02T08:57:33;18.90;;;1.90;;
2023;SDS011;1016;48.770;9.154;2023-02-02T08:59:58;21.13;;;2.00;;
2023;SDS011;1016;48.770;9.154;2023-02-02T09:02:24;20.33;;;2.30;;
2023;SDS011;1016;48.770;9.154;2023-02-02T09:04:49;19.20;;;2.10;;
2023;SDS011;1016;48.770;9.154;2023-02-02T09:07:15;18.53;;;1.90;;
2023;SDS011;1016;48.770;9.154;2023-02-02T09:09:40;19.47;;;2.10;;
2023;SDS011;1016;48.770;9.154;2023-02-02T09:12:06;18.07;;;1.83;;
2023;SDS011;1016;48.770;9.154;2023-02-02T09:14:31;19.40;;;2.90;;
2023;SDS011;1016;48.770;9.154;2023-02-02T09:16:57;19.20;;;2.10;;
2023;SDS011;1016;48.770;9.154;2023-02-02T09:19:22;21.37;;;2.60;;
2023;SDS011;1016;48.770;9.154;2023-02-02T09:21:48;21.30;;;2.73;;
2023;SDS011;1016;48.770;9.154;2023-02-02T09:24:14;23.23;;;2.60;;
2023;SDS011;1016;48.770;9.154;2023-02-02T09:26:41;21.37;;;2.57;;
2023;SDS011;1016;48.770;9.154;2023-02-02T09:29:11;23.80;;;2.93;;
2023;SDS011;1016;48.770;9.154;2023-02-02T09:31:38;20.93;;;2.57;;
2023;SDS011;1016;48.770;9.154;2023-02-02T09:34:05;21.03;;;2.70;;
2023;SDS011;1016;48.770;9.154;2023-02-02T09:36:32;21.60;;;2.93;;
2023;SDS011;1016;48.770;9.154;2023-02-02T09:38:57;20.37;;;2.57;;
2023;SDS011;1016;48.770;9.154;2023-02-02T09:41:28;23.83;;;2.73;;
2023;SDS011;1016;48.770;9.154;2023-02-02T09:44:08;20.20;;;2.57;;
2023;SDS011;1016;48.770;9.154;2023-02-02T09:52:55;22.27;;;3.27;;
2023;SDS011;1016;48.770;9.154;2023-02-02T09:55:40;20.87;;;2.63;;
2023;SDS011;1016;48.770;9.154;2023-02-02T10:09:01;21.43;;;3.00;;
2023;SDS011;1016;48.770;9.154;2023-02-02T10:11:40;21.57;;;3.33;;
2023;SDS011;1016;48.770;9.154;2023-02-02T10:14:18;19.03;;;2.80;;
2023;SDS011;1016;48.770;9.154;2023-02-02T10:17:07;22.87;;;3.00;;
2023;SDS011;1016;48.770;9.154;2023-02-02T10:19:45;19.70;;;2.43;;
2023;SDS011;1016;48.770;9.154;2023-02-02T10:22:16;19.87;;;2.73;;
2023;SDS011;1016;48.770;9.154;2023-02-02T10:24:45;22.50;;;3.00;;
2023;SDS011;1016;48.770;9.154;2023-02-02T10:27:13;19.50;;;2.83;;
2023;SDS011;1016;48.770;9.154;2023-02-02T10:29:46;18.87;;;2.70;;
2023;SDS011;1016;48.770;9.154;2023-02-02T10:32:26;19.50;;;2.70;;
2023;SDS011;1016;48.770;9.154;2023-02-02T10:43:36;19.20;;;2.63;;
2023;SDS011;1016;48.770;9.154;2023-02-02T10:48:46;22.30;;;2.60;;
2023;SDS011;1016;48.770;9.154;2023-02-02T10:51:15;19.80;;;2.50;;
2023;SDS011;1016;48.770;9.154;2023-02-02T10:53:47;21.60;;;2.60;;
2023;SDS011;1016;48.770;9.154;2023-02-02T10:56:17;19.30;;;2.40;;
2023;SDS011;1016;48.770;9.154;2023-02-02T10:58:58;18.40;;;2.17;;
2023;SDS011;1016;48.770;9.154;2023-02-02T11:01:45;19.60;;;2.53;;
2023;SDS011;1016;48.770;9.154;2023-02-02T11:04:12;18.87;;;2.30;;
2023;SDS011;1016;48.770;9.154;2023-02-02T11:07:10;21.60;;;2.20;;
2023;SDS011;1016;48.770;9.154;2023-02-02T11:09:44;20.53;;;2.10;;
2023;SDS011;1016;48.770;9.154;2023-02-02T11:12:21;18.80;;;2.40;;
2023;SDS011;1016;48.770;9.154;2023-02-02T11:15:25;18.17;;;2.00;;
2023;SDS011;1016;48.770;9.154;2023-02-02T11:17:53;22.27;;;2.80;;
2023;SDS011;1016;48.770;9.154;2023-02-02T11:20:26;20.30;;;2.73;;
2023;SDS011;1016;48.770;9.154;2023-02-02T11:23:00;20.90;;;2.27;;
2023;SDS011;1016;48.770;9.154;2023-02-02T11:25:32;22.47;;;2.30;;
2023;SDS011;1016;48.770;9.154;2023-02-02T11:28:00;21.93;;;2.80;;
2023;SDS011;1016;48.770;9.154;2023-02-02T11:30:36;19.63;;;2.33;;
2023;SDS011;1016;48.770;9.154;2023-02-02T11:33:36;22.77;;;2.97;;
2023;SDS011;1016;48.770;9.154;2023-02-02T11:36:01;21.10;;;2.27;;
2023;SDS011;1016;48.770;9.154;2023-02-02T11:38:27;20.10;;;2.17;;
2023;SDS011;1016;48.770;9.154;2023-02-02T11:41:03;18.87;;;1.90;;
2023;SDS011;1016;48.770;9.154;2023-02-02T11:43:37;20.30;;;2.60;;
2023;SDS011;1016;48.770;9.154;2023-02-02T11:46:12;19.90;;;2.13;;
2023;SDS011;1016;48.770;9.154;2023-02-02T11:49:04;21.43;;;2.47;;
2023;SDS011;1016;48.770;9.154;2023-02-02T11:51:37;19.20;;;2.13;;
2023;SDS011;1016;48.770;9.154;2023-02-02T11:54:04;19.27;;;2.33;;
2023;SDS011;1016;48.770;9.154;2023-02-02T11:56:48;18.80;;;2.33;;
2023;SDS011;1016;48.770;9.154;2023-02-02T11:59:27;22.13;;;2.70;;
2023;SDS011;1016;48.770;9.154;2023-02-02T12:04:48;19.70;;;2.80;;
2023;SDS011;1016;48.770;9.154;2023-02-02T12:07:31;18.27;;;2.17;;
2023;SDS011;1016;48.770;9.154;2023-02-02T12:09:58;22.43;;;2.30;;
2023;SDS011;1016;48.770;9.154;2023-02-02T12:12:30;18.07;;;1.90;;
2023;SDS011;1016;48.770;9.154;2023-02-02T12:15:19;21.83;;;2.77;;
2023;SDS011;1016;48.770;9.154;2023-02-02T12:18:00;20.10;;;2.10;;
2023;SDS011;1016;48.770;9.154;2023-02-02T12:20:49;21.40;;;2.03;;
2023;SDS011;1016;48.770;9.154;2023-02-02T12:23:34;18.47;;;2.23;;
2023;SDS011;1016;48.770;9.154;2023-02-02T12:26:33;19.53;;;2.30;;
2023;SDS011;1016;48.770;9.154;2023-02-02T12:32:10;18.60;;;2.20;;
2023;SDS011;1016;48.770;9.154;2023-02-02T12:43:46;20.67;;;2.20;;
2023;SDS011;1016;48.770;9.154;2023-02-02T12:46:25;19.70;;;2.37;;
2023;SDS011;1016;48.770;9.154;2023-02-02T12:49:18;22.63;;;2.00;;
2023;SDS011;1016;48.770;9.154;2023-02-02T12:52:03;20.57;;;1.93;;
2023;SDS011;1016;48.770;9.154;2023-02-02T12:54:43;17.43;;;1.77;;
2023;SDS011;1016;48.770;9.154;2023-02-02T12:57:27;19.53;;;2.43;;
2023;SDS011;1016;48.770;9.154;2023-02-02T13:03:28;19.27;;;2.57;;
2023;SDS011;1016;48.770;9.154;2023-02-02T13:09:14;19.10;;;2.30;;
2023;SDS011;1016;48.770;9.154;2023-02-02T13:11:48;21.90;;;2.33;;
2023;SDS011;1016;48.770;9.154;2023-02-02T13:14:23;18.40;;;2.00;;
2023;SDS011;1016;48.770;9.154;2023-02-02T13:16:53;21.10;;;2.20;;
2023;SDS011;1016;48.770;9.154;2023-02-02T13:19:37;22.27;;;2.30;;
2023;SDS011;1016;48.770;9.154;2023-02-02T13:22:06;18.17;;;1.90;;
2023;SDS011;1016;48.770;9.154;2023-02-02T13:24:39;18.17;;;2.23;;
2023;SDS011;1016;48.770;9.154;2023-02-02T13:27:09;17.43;;;2.07;;
2023;SDS011;1016;48.770;9.154;2023-02-02T13:29:43;20.50;;;2.20;;
2023;SDS011;1016;48.770;9.154;2023-02-02T13:32:18;17.57;;;1.90;;
2023;SDS011;1016;48.770;9.154;2023-02-02T13:34:55;21.67;;;2.00;;
2023;SDS011;1016;48.770;9.154;2023-02-02T13:51:25;20.20;;;2.40;;
2023;SDS011;1016;48.770;9.154;2023-02-02T14:04:57;19.60;;;2.43;;
2023;SDS011;1016;48.770;9.154;2023-02-02T14:10:05;19.53;;;2.30;;
2023;SDS011;1016;48.770;9.154;2023-02-02T14:12:44;19.80;;;2.77;;
2023;SDS011;1016;48.770;9.154;2023-02-02T14:15:09;18.87;;;2.07;;
2023;SDS011;1016;48.770;9.154;2023-02-02T14:20:03;20.27;;;2.10;;
2023;SDS011;1016;48.770;9.154;2023-02-02T14:22:45;20.07;;;2.23;;
2023;SDS011;1016;48.770;9.154;2023-02-02T14:28:01;19.83;;;2.37;;
2023;SDS011;1016;48.770;9.154;2023-02-02T14:30:32;18.23;;;2.00;;
2023;SDS011;1016;48.770;9.154;2023-02-02T14:44:10;21.43;;;2.40;;
2023;SDS011;1016;48.770;9.154;2023-02-02T14:46:39;18.93;;;2.50;;
2023;SDS011;1016;48.770;9.154;2023-02-02T14:49:13;18.67;;;2.40;;
2023;SDS011;1016;48.770;9.154;2023-02-02T14:51:48;20.77;;;2.47;;
2023;SDS011;1016;48.770;9.154;2023-02-02T14:54:26;18.00;;;1.90;;
2023;SDS011;1016;48.770;9.154;2023-02-02T14:57:03;20.40;;;2.30;;
2023;SDS011;1016;48.770;9.154;2023-02-02T14:59:43;18.20;;;1.80;;
2023;SDS011;1016;48.770;9.154;2023-02-02T15:02:30;19.80;;;2.10;;
2023;SDS011;1016;48.770;9.154;2023-02-02T15:07:53;22.27;;;2.43;;
2023;SDS011;1016;48.770;9.154;2023-02-02T15:13:18;19.07;;;2.17;;
2023;SDS011;1016;48.770;9.154;2023-02-02T15:15:46;18.70;;;1.90;;
2023;SDS011;1016;48.770;9.154;2023-02-02T15:18:14;19.23;;;1.97;;
2023;SDS011;1016;48.770;9.154;2023-02-02T15:20:49;17.63;;;2.00;;
2023;SDS011;1016;48.770;9.154;2023-02-02T15:23:29;20.10;;;2.00;;
2023;SDS011;1016;48.770;9.154;2023-02-02T15:26:22;18.20;;;1.90;;
2023;SDS011;1016;48.770;9.154;2023-02-02T15:28:53;18.87;;;1.77;;
2023;SDS011;1016;48.770;9.154;2023-02-02T15:34:18;17.30;;;1.80;;
2023;SDS011;1016;48.770;9.154;2023-02-02T15:36:51;18.40;;;2.00;;
2023;SDS011;1016;48.770;9.154;2023-02-02T15:41:57;18.77;;;1.97;;
2023;SDS011;1016;48.770;9.154;2023-02-02T15:44:45;21.60;;;2.47;;
2023;SDS011;1016;48.770;9.154;2023-02-02T15:47:15;18.77;;;2.03;;
2023;SDS011;1016;48.770;9.154;2023-02-02T15:49:43;18.40;;;2.23;;
2023;SDS011;1016;48.770;9.154;2023-02-02T15:52:13;21.90;;;2.27;;
2023;SDS011;1016;48.770;9.154;2023-02-02T15:54:47;20.80;;;2.43;;
2023;SDS011;1016;48.770;9.154;2023-02-02T15:57:31;21.77;;;2.17;;
2023;SDS011;1016;48.770;9.154;2023-02-02T16:03:02;20.10;;;2.37;;
2023;SDS011;1016;48.770;9.154;2023-02-02T16:07:59;19.40;;;2.13;;
2023;SDS011;1016;48.770;9.154;2023-02-02T16:10:26;19.40;;;2.60;;
2023;SDS011;1016;48.770;9.154;2023-02-02T16:12:52;19.10;;;2.13;;
2023;SDS011;1016;48.770;9.154;2023-02-02T16:15:20;24.20;;;2.00;;
2023;SDS011;1016;48.770;9.154;2023-02-02T16:18:02;21.10;;;2.37;;
2023;SDS011;1016;48.770;9.154;2023-02-02T16:20:30;18.37;;;2.10;;
2023;SDS011;1016;48.770;9.154;2023-02-02T16:22:58;19.07;;;1.90;;
2023;SDS011;1016;48.770;9.154;2023-02-02T16:25:26;18.00;;;2.00;;
2023;SDS011;1016;48.770;9.154;2023-02-02T16:27:55;18.20;;;2.03;;
2023;SDS011;1016;48.770;9.154;2023-02-02T16:30:28;18.93;;;2.20;;
2023;SDS011;1016;48.770;9.154;2023-02-02T16:33:02;18.80;;;2.23;;
2023;SDS011;1016;48.770;9.154;2023-02-02T16:35:59;18.57;;;2.37;;
2023;SDS011;1016;48.770;9.154;2023-02-02T16:38:28;20.50;;;2.37;;
2023;SDS011;1016;48.770;9.154;2023-02-02T16:41:05;17.30;;;1.50;;
2023;SDS011;1016;48.770;9.154;2023-02-02T16:43:31;18.97;;;2.00;;
2023;SDS011;1016;48.770;9.154;2023-02-02T16:45:58;20.57;;;1.80;;
2023;SDS011;1016;48.770;9.154;2023-02-02T16:53:46;19.50;;;2.10;;
2023;SDS011;1016;48.770;9.154;2023-02-02T16:59:17;17.73;;;1.97;;
2023;SDS011;1016;48.770;9.154;2023-02-02T17:04:48;19.40;;;1.60;;
2023;SDS011;1016;48.770;9.154;2023-02-02T17:07:21;16.90;;;1.90;;
2023;SDS011;1016;48.770;9.154;2023-02-02T17:09:47;18.97;;;1.73;;
2023;SDS011;1016;48.770;9.154;2023-02-02T17:14:58;17.70;;;1.70;;
2023;SDS011;1016;48.770;9.154;2023-02-02T17:17:29;16.57;;;1.63;;
2023;SDS011;1016;48.770;9.154;2023-02-02T17:19:54;18.20;;;1.70;;
2023;SDS011;1016;48.770;9.154;2023-02-02T17:22:23;16.93;;;1.67;;
2023;SDS011;1016;48.770;9.154;2023-02-02T17:24:51;18.30;;;1.90;;
2023;SDS011;1016;48.770;9.154;2023-02-02T17:27:19;16.50;;;1.70;;
2023;SDS011;1016;48.770;9.154;2023-02-02T17:29:50;17.83;;;1.80;;
2023;SDS011;1016;48.770;9.154;2023-02-02T17:32:16;16.67;;;1.70;;
2023;SDS011;1016;48.770;9.154;2023-02-02T17:34:42;19.73;;;2.03;;
2023;SDS011;1016;48.770;9.154;2023-02-02T17:37:09;18.60;;;1.87;;
2023;SDS011;1016;48.770;9.154;2023-02-02T17:39:35;19.20;;;2.00;;
2023;SDS011;1016;48.770;9.154;2023-02-02T17:42:01;18.13;;;1.60;;
2023;SDS011;1016;48.770;9.154;2023-02-02T17:44:26;16.77;;;1.70;;